TKJ247 LTFJ-LTFC
Flight info
| Callsign | TKJ247 |
|---|---|
| Flight time | 0h 43m |
| Altitude | 25000 |
| Route | ROXUK UN617 ERVAG UT305 TEKDO UT35 BABSA |
| Aircraft | A21N/M-SDE2E3FGHIJ1RWXY/LB1 |
Departure
| Time | 2026-04-29 21:04 |
|---|---|
| Airport | Istanbul Sabiha Gökçen International Airport (LTFJ) |
Arrival
| Time | 2026-04-29 21:48 |
|---|---|
| Airport | Süleyman Demirel International Airport (LTFC) |
| Time | Latitude | Longitude | Altitude | Speed | Heading |
|---|---|---|---|---|---|
| 2026-04-29 20:29 | 40.90778 | 29.32029 | 316 ft | 0 kts | 334° |
| 2026-04-29 20:48 | 40.90775 | 29.32032 | 315 ft | 3 kts | 334° |
| 2026-04-29 20:49 | 40.90758 | 29.32043 | 315 ft | 3 kts | 334° |
| 2026-04-29 20:49 | 40.90741 | 29.32053 | 316 ft | 3 kts | 334° |
| 2026-04-29 20:49 | 40.90724 | 29.32064 | 316 ft | 3 kts | 334° |
| 2026-04-29 20:49 | 40.90707 | 29.32075 | 314 ft | 3 kts | 334° |
| 2026-04-29 20:50 | 40.90697 | 29.32082 | 315 ft | 3 kts | 334° |
| 2026-04-29 20:50 | 40.90681 | 29.32092 | 315 ft | 3 kts | 334° |
| 2026-04-29 20:50 | 40.90673 | 29.32097 | 314 ft | 0 kts | 334° |
| 2026-04-29 20:54 | 40.90678 | 29.32078 | 315 ft | 4 kts | 276° |
| 2026-04-29 20:54 | 40.90669 | 29.32029 | 316 ft | 7 kts | 244° |
| 2026-04-29 20:54 | 40.90643 | 29.31965 | 316 ft | 9 kts | 243° |
| 2026-04-29 20:55 | 40.90584 | 29.31936 | 316 ft | 12 kts | 158° |
| 2026-04-29 20:55 | 40.90506 | 29.31986 | 316 ft | 11 kts | 156° |
| 2026-04-29 20:55 | 40.90469 | 29.31989 | 316 ft | 7 kts | 203° |
| 2026-04-29 20:55 | 40.90437 | 29.31934 | 316 ft | 9 kts | 252° |
| 2026-04-29 20:56 | 40.90407 | 29.31849 | 316 ft | 11 kts | 244° |
| 2026-04-29 20:56 | 40.90369 | 29.31745 | 316 ft | 14 kts | 244° |
| 2026-04-29 20:56 | 40.90324 | 29.31624 | 316 ft | 16 kts | 244° |
| 2026-04-29 20:56 | 40.90274 | 29.31487 | 316 ft | 18 kts | 244° |
| 2026-04-29 20:57 | 40.90216 | 29.31330 | 316 ft | 20 kts | 244° |
| 2026-04-29 20:57 | 40.90155 | 29.31164 | 316 ft | 21 kts | 244° |
| 2026-04-29 20:57 | 40.90099 | 29.31013 | 316 ft | 16 kts | 244° |
| 2026-04-29 20:57 | 40.90047 | 29.30870 | 316 ft | 18 kts | 244° |
| 2026-04-29 20:58 | 40.89990 | 29.30713 | 316 ft | 20 kts | 244° |
| 2026-04-29 20:58 | 40.89927 | 29.30542 | 316 ft | 22 kts | 243° |
| 2026-04-29 20:58 | 40.89858 | 29.30359 | 315 ft | 23 kts | 244° |
| 2026-04-29 20:58 | 40.89786 | 29.30163 | 314 ft | 24 kts | 244° |
| 2026-04-29 20:59 | 40.89709 | 29.29955 | 313 ft | 26 kts | 244° |
| 2026-04-29 20:59 | 40.89629 | 29.29738 | 311 ft | 26 kts | 244° |
| 2026-04-29 20:59 | 40.89566 | 29.29563 | 308 ft | 22 kts | 244° |
| 2026-04-29 20:59 | 40.89502 | 29.29393 | 309 ft | 12 kts | 244° |
| 2026-04-29 21:00 | 40.89460 | 29.29281 | 309 ft | 15 kts | 234° |
| 2026-04-29 21:00 | 40.89387 | 29.29259 | 309 ft | 2 kts | 162° |
| 2026-04-29 21:00 | 40.89367 | 29.29272 | 308 ft | 4 kts | 156° |
| 2026-04-29 21:00 | 40.89360 | 29.29276 | 309 ft | 0 kts | 155° |
| 2026-04-29 21:02 | 40.89359 | 29.29277 | 308 ft | 1 kts | 155° |
| 2026-04-29 21:02 | 40.89343 | 29.29286 | 308 ft | 3 kts | 155° |
| 2026-04-29 21:02 | 40.89314 | 29.29306 | 306 ft | 7 kts | 147° |
| 2026-04-29 21:03 | 40.89286 | 29.29367 | 307 ft | 10 kts | 82° |
| 2026-04-29 21:03 | 40.89302 | 29.29412 | 309 ft | 3 kts | 66° |
| 2026-04-29 21:03 | 40.89345 | 29.29536 | 312 ft | 44 kts | 64° |
| 2026-04-29 21:03 | 40.89598 | 29.30217 | 314 ft | 120 kts | 64° |
| 2026-04-29 21:04 | 40.90048 | 29.31408 | 519 ft | 154 kts | 62° |
| 2026-04-29 21:04 | 40.90521 | 29.32695 | 1191 ft | 157 kts | 64° |
| 2026-04-29 21:04 | 40.90984 | 29.34007 | 1884 ft | 160 kts | 66° |
| 2026-04-29 21:04 | 40.91495 | 29.35395 | 2383 ft | 178 kts | 65° |
| 2026-04-29 21:05 | 40.92064 | 29.36936 | 2948 ft | 194 kts | 64° |
| 2026-04-29 21:05 | 40.92645 | 29.38606 | 3523 ft | 214 kts | 69° |
| 2026-04-29 21:05 | 40.92890 | 29.40670 | 4004 ft | 241 kts | 94° |
| 2026-04-29 21:05 | 40.92373 | 29.42846 | 4666 ft | 259 kts | 121° |
| 2026-04-29 21:06 | 40.91066 | 29.44552 | 5363 ft | 275 kts | 149° |
| 2026-04-29 21:06 | 40.89334 | 29.45668 | 6168 ft | 280 kts | 156° |
| 2026-04-29 21:06 | 40.87539 | 29.46723 | 6747 ft | 284 kts | 156° |
| 2026-04-29 21:06 | 40.85740 | 29.47804 | 7008 ft | 286 kts | 156° |
| 2026-04-29 21:07 | 40.83927 | 29.48921 | 7042 ft | 286 kts | 155° |
| 2026-04-29 21:07 | 40.82128 | 29.50044 | 7263 ft | 285 kts | 155° |
| 2026-04-29 21:07 | 40.80323 | 29.51179 | 8074 ft | 291 kts | 155° |
| 2026-04-29 21:07 | 40.78504 | 29.52327 | 8961 ft | 294 kts | 155° |
| 2026-04-29 21:08 | 40.76746 | 29.53720 | 9829 ft | 301 kts | 139° |
| 2026-04-29 21:08 | 40.75336 | 29.55811 | 10504 ft | 313 kts | 127° |
| 2026-04-29 21:08 | 40.74009 | 29.58193 | 10961 ft | 331 kts | 126° |
| 2026-04-29 21:08 | 40.72628 | 29.60688 | 11595 ft | 341 kts | 127° |
| 2026-04-29 21:09 | 40.71209 | 29.63216 | 12411 ft | 345 kts | 128° |
| 2026-04-29 21:09 | 40.69745 | 29.65736 | 13271 ft | 347 kts | 132° |
| 2026-04-29 21:09 | 40.67908 | 29.67783 | 14094 ft | 347 kts | 153° |
| 2026-04-29 21:09 | 40.65650 | 29.68811 | 14809 ft | 345 kts | 175° |
| 2026-04-29 21:10 | 40.63289 | 29.68915 | 15532 ft | 345 kts | 184° |
| 2026-04-29 21:10 | 40.60872 | 29.68835 | 16268 ft | 350 kts | 184° |
| 2026-04-29 21:10 | 40.58418 | 29.68770 | 17014 ft | 354 kts | 184° |
| 2026-04-29 21:10 | 40.55942 | 29.68733 | 17738 ft | 359 kts | 183° |
| 2026-04-29 21:11 | 40.53430 | 29.68712 | 18459 ft | 363 kts | 183° |
| 2026-04-29 21:11 | 40.50891 | 29.68701 | 19082 ft | 367 kts | 183° |
| 2026-04-29 21:11 | 40.48328 | 29.69018 | 19706 ft | 375 kts | 171° |
| 2026-04-29 21:11 | 40.45791 | 29.69899 | 20331 ft | 380 kts | 167° |
| 2026-04-29 21:12 | 40.43239 | 29.70861 | 20959 ft | 383 kts | 167° |
| 2026-04-29 21:12 | 40.40692 | 29.71801 | 21558 ft | 387 kts | 168° |
| 2026-04-29 21:12 | 40.38099 | 29.72738 | 22163 ft | 390 kts | 168° |
| 2026-04-29 21:12 | 40.35474 | 29.73674 | 22891 ft | 390 kts | 169° |
| 2026-04-29 21:13 | 40.32861 | 29.74601 | 23660 ft | 389 kts | 169° |
| 2026-04-29 21:13 | 40.30245 | 29.75525 | 24256 ft | 389 kts | 169° |
| 2026-04-29 21:13 | 40.27625 | 29.76448 | 24791 ft | 390 kts | 169° |
| 2026-04-29 21:13 | 40.25003 | 29.77371 | 25051 ft | 390 kts | 169° |
| 2026-04-29 21:14 | 40.22386 | 29.78292 | 25125 ft | 390 kts | 169° |
| 2026-04-29 21:14 | 40.19801 | 29.79200 | 25137 ft | 390 kts | 169° |
| 2026-04-29 21:14 | 40.17186 | 29.80116 | 25128 ft | 389 kts | 169° |
| 2026-04-29 21:14 | 40.14571 | 29.81031 | 25127 ft | 389 kts | 169° |
| 2026-04-29 21:15 | 40.11948 | 29.81949 | 25129 ft | 390 kts | 169° |
| 2026-04-29 21:15 | 40.09325 | 29.82865 | 25130 ft | 390 kts | 169° |
| 2026-04-29 21:15 | 40.06705 | 29.83782 | 25132 ft | 390 kts | 169° |
| 2026-04-29 21:15 | 40.04089 | 29.84697 | 25140 ft | 390 kts | 169° |
| 2026-04-29 21:16 | 40.01498 | 29.85602 | 25141 ft | 390 kts | 169° |
| 2026-04-29 21:16 | 39.98883 | 29.86514 | 25143 ft | 390 kts | 169° |
| 2026-04-29 21:16 | 39.96265 | 29.87425 | 25142 ft | 390 kts | 169° |
| 2026-04-29 21:16 | 39.93645 | 29.88341 | 25145 ft | 389 kts | 169° |
| 2026-04-29 21:17 | 39.91036 | 29.89250 | 25148 ft | 389 kts | 169° |
| 2026-04-29 21:17 | 39.88414 | 29.90160 | 25147 ft | 389 kts | 169° |
| 2026-04-29 21:17 | 39.85809 | 29.91065 | 25149 ft | 389 kts | 169° |
| 2026-04-29 21:17 | 39.83193 | 29.91972 | 25153 ft | 389 kts | 169° |
| 2026-04-29 21:18 | 39.80580 | 29.92877 | 25149 ft | 389 kts | 169° |
| 2026-04-29 21:18 | 39.78000 | 29.93771 | 25149 ft | 389 kts | 169° |
| 2026-04-29 21:18 | 39.75386 | 29.94677 | 25151 ft | 389 kts | 169° |
| 2026-04-29 21:18 | 39.72764 | 29.95585 | 25148 ft | 389 kts | 169° |
| 2026-04-29 21:19 | 39.70151 | 29.96489 | 25149 ft | 389 kts | 169° |
| 2026-04-29 21:19 | 39.67538 | 29.97392 | 25151 ft | 389 kts | 169° |
| 2026-04-29 21:19 | 39.64918 | 29.98295 | 25150 ft | 389 kts | 169° |
| 2026-04-29 21:19 | 39.62298 | 29.99197 | 25155 ft | 389 kts | 169° |
| 2026-04-29 21:20 | 39.59684 | 30.00098 | 25154 ft | 389 kts | 169° |
| 2026-04-29 21:20 | 39.57139 | 30.00979 | 25145 ft | 376 kts | 169° |
| 2026-04-29 21:20 | 39.54579 | 30.01860 | 25147 ft | 386 kts | 169° |
| 2026-04-29 21:20 | 39.51969 | 30.02758 | 25159 ft | 389 kts | 169° |
| 2026-04-29 21:21 | 39.49357 | 30.03655 | 25157 ft | 389 kts | 169° |
| 2026-04-29 21:21 | 39.46740 | 30.04554 | 25156 ft | 388 kts | 169° |
| 2026-04-29 21:21 | 39.44130 | 30.05449 | 25153 ft | 388 kts | 169° |
| 2026-04-29 21:21 | 39.41517 | 30.06345 | 25156 ft | 388 kts | 169° |
| 2026-04-29 21:22 | 39.38904 | 30.07239 | 25154 ft | 388 kts | 169° |
| 2026-04-29 21:22 | 39.36327 | 30.08122 | 25155 ft | 389 kts | 169° |
| 2026-04-29 21:22 | 39.33722 | 30.09014 | 25158 ft | 388 kts | 169° |
| 2026-04-29 21:22 | 39.31111 | 30.09909 | 25160 ft | 388 kts | 169° |
| 2026-04-29 21:23 | 39.28500 | 30.10799 | 25157 ft | 388 kts | 169° |
| 2026-04-29 21:23 | 39.25890 | 30.11688 | 25160 ft | 388 kts | 169° |
| 2026-04-29 21:23 | 39.23278 | 30.12577 | 25156 ft | 388 kts | 169° |
| 2026-04-29 21:23 | 39.20669 | 30.13466 | 25157 ft | 387 kts | 169° |
| 2026-04-29 21:24 | 39.18067 | 30.14351 | 25156 ft | 387 kts | 169° |
| 2026-04-29 21:24 | 39.15496 | 30.15226 | 25160 ft | 387 kts | 168° |
| 2026-04-29 21:24 | 39.12887 | 30.16112 | 25160 ft | 388 kts | 168° |
| 2026-04-29 21:24 | 39.10226 | 30.17013 | 25168 ft | 404 kts | 168° |
| 2026-04-29 21:25 | 39.07449 | 30.17931 | 25173 ft | 417 kts | 171° |
| 2026-04-29 21:25 | 39.04581 | 30.18295 | 25168 ft | 413 kts | 184° |
| 2026-04-29 21:25 | 39.01705 | 30.18176 | 25171 ft | 413 kts | 185° |
| 2026-04-29 21:25 | 38.98834 | 30.18035 | 25164 ft | 413 kts | 185° |
| 2026-04-29 21:26 | 38.95961 | 30.17908 | 25162 ft | 413 kts | 185° |
| 2026-04-29 21:26 | 38.93088 | 30.17797 | 25158 ft | 413 kts | 185° |
| 2026-04-29 21:26 | 38.90256 | 30.17695 | 25157 ft | 413 kts | 185° |
| 2026-04-29 21:26 | 38.87378 | 30.17588 | 25155 ft | 413 kts | 185° |
| 2026-04-29 21:27 | 38.84506 | 30.17482 | 25149 ft | 413 kts | 185° |
| 2026-04-29 21:27 | 38.81636 | 30.17379 | 25148 ft | 413 kts | 185° |
| 2026-04-29 21:27 | 38.78776 | 30.17278 | 25150 ft | 413 kts | 185° |
| 2026-04-29 21:27 | 38.75905 | 30.17171 | 25149 ft | 413 kts | 185° |
| 2026-04-29 21:28 | 38.73029 | 30.17066 | 25144 ft | 413 kts | 185° |
| 2026-04-29 21:28 | 38.70159 | 30.16962 | 25147 ft | 413 kts | 184° |
| 2026-04-29 21:28 | 38.67328 | 30.16860 | 25140 ft | 413 kts | 184° |
| 2026-04-29 21:28 | 38.64455 | 30.16758 | 25141 ft | 413 kts | 184° |
| 2026-04-29 21:29 | 38.61584 | 30.16656 | 25136 ft | 412 kts | 184° |
| 2026-04-29 21:29 | 38.58713 | 30.16556 | 25131 ft | 412 kts | 184° |
| 2026-04-29 21:29 | 38.55846 | 30.16455 | 25129 ft | 412 kts | 184° |
| 2026-04-29 21:29 | 38.52981 | 30.16352 | 25134 ft | 412 kts | 184° |
| 2026-04-29 21:30 | 38.50111 | 30.16247 | 25132 ft | 412 kts | 184° |
| 2026-04-29 21:30 | 38.47247 | 30.16145 | 25133 ft | 412 kts | 184° |
| 2026-04-29 21:30 | 38.44414 | 30.16041 | 25131 ft | 412 kts | 184° |
| 2026-04-29 21:30 | 38.41548 | 30.15939 | 25133 ft | 412 kts | 184° |
| 2026-04-29 21:31 | 38.38687 | 30.15837 | 25130 ft | 412 kts | 184° |
| 2026-04-29 21:31 | 38.35820 | 30.15745 | 25126 ft | 412 kts | 182° |
| 2026-04-29 21:31 | 38.32967 | 30.16077 | 24705 ft | 414 kts | 170° |
| 2026-04-29 21:31 | 38.30188 | 30.17178 | 23648 ft | 424 kts | 162° |
| 2026-04-29 21:32 | 38.27399 | 30.18520 | 22447 ft | 431 kts | 161° |
| 2026-04-29 21:32 | 38.24612 | 30.19870 | 21629 ft | 427 kts | 161° |
| 2026-04-29 21:32 | 38.21896 | 30.21151 | 20931 ft | 421 kts | 161° |
| 2026-04-29 21:32 | 38.19151 | 30.22427 | 20177 ft | 417 kts | 162° |
| 2026-04-29 21:33 | 38.16441 | 30.23677 | 19523 ft | 412 kts | 162° |
| 2026-04-29 21:33 | 38.13756 | 30.24910 | 18825 ft | 408 kts | 162° |
| 2026-04-29 21:33 | 38.11105 | 30.26125 | 18214 ft | 402 kts | 161° |
| 2026-04-29 21:33 | 38.08504 | 30.27314 | 17578 ft | 395 kts | 161° |
| 2026-04-29 21:34 | 38.05936 | 30.28489 | 16989 ft | 389 kts | 161° |
| 2026-04-29 21:34 | 38.03416 | 30.29643 | 16443 ft | 382 kts | 161° |
| 2026-04-29 21:34 | 38.00938 | 30.30637 | 15921 ft | 375 kts | 168° |
| 2026-04-29 21:34 | 37.98404 | 30.31252 | 15444 ft | 367 kts | 171° |
| 2026-04-29 21:35 | 37.95911 | 30.31814 | 14942 ft | 362 kts | 172° |
| 2026-04-29 21:35 | 37.93440 | 30.32366 | 14427 ft | 360 kts | 171° |
| 2026-04-29 21:35 | 37.90966 | 30.32928 | 13908 ft | 363 kts | 171° |
| 2026-04-29 21:35 | 37.88479 | 30.33497 | 13357 ft | 364 kts | 171° |
| 2026-04-29 21:36 | 37.85978 | 30.33804 | 12860 ft | 357 kts | 185° |
| 2026-04-29 21:36 | 37.83637 | 30.33081 | 12565 ft | 339 kts | 206° |
| 2026-04-29 21:36 | 37.81815 | 30.31416 | 12283 ft | 319 kts | 227° |
| 2026-04-29 21:36 | 37.80421 | 30.29336 | 11982 ft | 301 kts | 232° |
| 2026-04-29 21:37 | 37.79140 | 30.27326 | 11651 ft | 287 kts | 231° |
| 2026-04-29 21:37 | 37.77894 | 30.25413 | 11210 ft | 278 kts | 231° |
| 2026-04-29 21:37 | 37.76671 | 30.23580 | 10999 ft | 268 kts | 230° |
| 2026-04-29 21:37 | 37.75483 | 30.21826 | 10856 ft | 257 kts | 230° |
| 2026-04-29 21:38 | 37.74347 | 30.20160 | 10723 ft | 244 kts | 230° |
| 2026-04-29 21:38 | 37.73263 | 30.18577 | 10580 ft | 233 kts | 230° |
| 2026-04-29 21:38 | 37.72191 | 30.17080 | 10319 ft | 226 kts | 222° |
| 2026-04-29 21:38 | 37.70862 | 30.16214 | 10105 ft | 217 kts | 191° |
| 2026-04-29 21:39 | 37.69384 | 30.16028 | 9779 ft | 212 kts | 184° |
| 2026-04-29 21:39 | 37.67919 | 30.15913 | 9393 ft | 210 kts | 185° |
| 2026-04-29 21:39 | 37.66458 | 30.15772 | 9177 ft | 211 kts | 186° |
| 2026-04-29 21:39 | 37.65062 | 30.15311 | 8980 ft | 205 kts | 213° |
| 2026-04-29 21:40 | 37.64142 | 30.14055 | 8724 ft | 192 kts | 248° |
| 2026-04-29 21:40 | 37.64005 | 30.12477 | 8503 ft | 180 kts | 284° |
| 2026-04-29 21:40 | 37.64670 | 30.11167 | 8296 ft | 181 kts | 321° |
| 2026-04-29 21:40 | 37.65753 | 30.10411 | 8070 ft | 182 kts | 344° |
| 2026-04-29 21:41 | 37.66998 | 30.10491 | 7819 ft | 183 kts | 21° |
| 2026-04-29 21:41 | 37.68073 | 30.11347 | 7588 ft | 183 kts | 39° |
| 2026-04-29 21:41 | 37.68996 | 30.12438 | 7352 ft | 182 kts | 45° |
| 2026-04-29 21:41 | 37.69861 | 30.13598 | 7110 ft | 181 kts | 46° |
| 2026-04-29 21:42 | 37.70707 | 30.14775 | 6876 ft | 181 kts | 48° |
| 2026-04-29 21:42 | 37.71526 | 30.15972 | 6659 ft | 179 kts | 49° |
| 2026-04-29 21:42 | 37.72332 | 30.17162 | 6456 ft | 178 kts | 49° |
| 2026-04-29 21:42 | 37.73136 | 30.18352 | 6254 ft | 178 kts | 49° |
| 2026-04-29 21:43 | 37.73937 | 30.19537 | 6064 ft | 175 kts | 49° |
| 2026-04-29 21:43 | 37.74701 | 30.20669 | 5864 ft | 171 kts | 49° |
| 2026-04-29 21:43 | 37.75474 | 30.21814 | 5652 ft | 171 kts | 49° |
| 2026-04-29 21:43 | 37.76233 | 30.22939 | 5428 ft | 161 kts | 49° |
| 2026-04-29 21:44 | 37.76946 | 30.23995 | 5240 ft | 158 kts | 49° |
| 2026-04-29 21:44 | 37.77656 | 30.25047 | 5049 ft | 156 kts | 49° |
| 2026-04-29 21:44 | 37.78334 | 30.26053 | 4844 ft | 145 kts | 49° |
| 2026-04-29 21:44 | 37.78980 | 30.27012 | 4578 ft | 141 kts | 49° |
| 2026-04-29 21:45 | 37.79605 | 30.27942 | 4330 ft | 140 kts | 48° |
| 2026-04-29 21:45 | 37.80236 | 30.28873 | 4161 ft | 139 kts | 50° |
| 2026-04-29 21:45 | 37.80854 | 30.29810 | 3942 ft | 138 kts | 48° |
| 2026-04-29 21:45 | 37.81480 | 30.30724 | 3908 ft | 138 kts | 49° |
| 2026-04-29 21:46 | 37.82096 | 30.31651 | 3741 ft | 137 kts | 48° |
| 2026-04-29 21:46 | 37.82711 | 30.32561 | 3534 ft | 136 kts | 49° |
| 2026-04-29 21:46 | 37.83320 | 30.33466 | 3356 ft | 134 kts | 49° |
| 2026-04-29 21:46 | 37.83925 | 30.34355 | 3136 ft | 133 kts | 49° |
| 2026-04-29 21:47 | 37.84516 | 30.35231 | 2951 ft | 132 kts | 49° |
| 2026-04-29 21:47 | 37.85109 | 30.36105 | 2852 ft | 126 kts | 49° |
| 2026-04-29 21:47 | 37.85601 | 30.36829 | 2850 ft | 75 kts | 49° |
| 2026-04-29 21:47 | 37.85886 | 30.37255 | 2846 ft | 55 kts | 49° |
| 2026-04-29 21:48 | 37.85963 | 30.37386 | 2847 ft | 11 kts | 70° |
| 2026-04-29 21:48 | 37.85960 | 30.37353 | 2846 ft | 10 kts | 208° |
| 2026-04-29 21:48 | 37.85901 | 30.37275 | 2848 ft | 20 kts | 232° |
| 2026-04-29 21:48 | 37.85764 | 30.37075 | 2846 ft | 32 kts | 229° |
| 2026-04-29 21:49 | 37.85675 | 30.36945 | 2848 ft | 16 kts | 229° |
| 2026-04-29 21:49 | 37.85659 | 30.36885 | 2848 ft | 8 kts | 286° |
| 2026-04-29 21:49 | 37.85702 | 30.36829 | 2850 ft | 11 kts | 321° |
| 2026-04-29 21:49 | 37.85767 | 30.36764 | 2847 ft | 13 kts | 321° |
| 2026-04-29 21:50 | 37.85799 | 30.36725 | 2848 ft | 6 kts | 303° |
| 2026-04-29 21:50 | 37.85828 | 30.36676 | 2846 ft | 8 kts | 316° |
| 2026-04-29 21:50 | 37.85841 | 30.36661 | 2847 ft | 2 kts | 324° |
| 2026-04-29 21:50 | 37.85847 | 30.36656 | 2850 ft | 0 kts | 324° |
| 2026-04-29 21:51 | 37.85851 | 30.36653 | 2850 ft | 2 kts | 326° |
| 2026-04-29 21:51 | 37.85854 | 30.36649 | 2846 ft | 0 kts | 318° |